sensor_id;sensor_type;location;lat;lon;timestamp;P1;durP1;ratioP1;P2;durP2;ratioP2
46110;SDS011;31849;55.992;37.252;2023-04-25T00:03:37;13.95;;;5.90;;
46110;SDS011;31849;55.992;37.252;2023-04-25T00:08:42;15.55;;;6.07;;
46110;SDS011;31849;55.992;37.252;2023-04-25T00:13:46;11.57;;;6.55;;
46110;SDS011;31849;55.992;37.252;2023-04-25T00:18:51;12.45;;;6.13;;
46110;SDS011;31849;55.992;37.252;2023-04-25T00:23:55;13.00;;;6.28;;
46110;SDS011;31849;55.992;37.252;2023-04-25T00:29:00;28.02;;;7.85;;
46110;SDS011;31849;55.992;37.252;2023-04-25T00:34:04;15.50;;;6.38;;
46110;SDS011;31849;55.992;37.252;2023-04-25T00:39:07;10.95;;;6.38;;
46110;SDS011;31849;55.992;37.252;2023-04-25T00:44:12;19.33;;;7.35;;
46110;SDS011;31849;55.992;37.252;2023-04-25T00:49:18;14.27;;;5.90;;
46110;SDS011;31849;55.992;37.252;2023-04-25T00:54:22;14.55;;;6.20;;
46110;SDS011;31849;55.992;37.252;2023-04-25T00:59:27;14.10;;;6.50;;
46110;SDS011;31849;55.992;37.252;2023-04-25T01:04:31;15.23;;;6.68;;
46110;SDS011;31849;55.992;37.252;2023-04-25T01:09:35;15.95;;;6.00;;
46110;SDS011;31849;55.992;37.252;2023-04-25T01:14:40;20.45;;;6.65;;
46110;SDS011;31849;55.992;37.252;2023-04-25T01:19:43;20.85;;;6.50;;
46110;SDS011;31849;55.992;37.252;2023-04-25T01:24:49;15.52;;;6.55;;
46110;SDS011;31849;55.992;37.252;2023-04-25T01:29:53;15.30;;;6.82;;
46110;SDS011;31849;55.992;37.252;2023-04-25T01:34:57;15.13;;;6.57;;
46110;SDS011;31849;55.992;37.252;2023-04-25T01:40:02;19.20;;;6.82;;
46110;SDS011;31849;55.992;37.252;2023-04-25T01:45:07;13.52;;;7.00;;
46110;SDS011;31849;55.992;37.252;2023-04-25T01:50:12;17.88;;;6.97;;
46110;SDS011;31849;55.992;37.252;2023-04-25T01:55:17;13.68;;;6.20;;
46110;SDS011;31849;55.992;37.252;2023-04-25T02:05:24;15.10;;;6.47;;
46110;SDS011;31849;55.992;37.252;2023-04-25T02:10:29;13.35;;;6.00;;
46110;SDS011;31849;55.992;37.252;2023-04-25T02:15:33;12.95;;;5.72;;
46110;SDS011;31849;55.992;37.252;2023-04-25T02:20:57;14.95;;;6.00;;
46110;SDS011;31849;55.992;37.252;2023-04-25T02:26:04;14.73;;;6.70;;
46110;SDS011;31849;55.992;37.252;2023-04-25T02:31:08;12.18;;;5.78;;
46110;SDS011;31849;55.992;37.252;2023-04-25T02:36:11;9.63;;;5.78;;
46110;SDS011;31849;55.992;37.252;2023-04-25T02:41:16;14.60;;;6.10;;
46110;SDS011;31849;55.992;37.252;2023-04-25T02:46:20;12.40;;;5.28;;
46110;SDS011;31849;55.992;37.252;2023-04-25T02:51:38;11.27;;;6.28;;
46110;SDS011;31849;55.992;37.252;2023-04-25T02:56:43;13.18;;;6.30;;
46110;SDS011;31849;55.992;37.252;2023-04-25T03:01:47;10.73;;;6.35;;
46110;SDS011;31849;55.992;37.252;2023-04-25T03:06:50;17.73;;;6.80;;
46110;SDS011;31849;55.992;37.252;2023-04-25T03:11:56;15.98;;;6.38;;
46110;SDS011;31849;55.992;37.252;2023-04-25T03:16:59;15.57;;;6.18;;
46110;SDS011;31849;55.992;37.252;2023-04-25T03:22:03;15.65;;;6.70;;
46110;SDS011;31849;55.992;37.252;2023-04-25T03:27:08;18.10;;;7.07;;
46110;SDS011;31849;55.992;37.252;2023-04-25T03:32:11;16.85;;;7.13;;
46110;SDS011;31849;55.992;37.252;2023-04-25T03:37:15;17.48;;;7.03;;
46110;SDS011;31849;55.992;37.252;2023-04-25T03:42:20;14.40;;;6.88;;
46110;SDS011;31849;55.992;37.252;2023-04-25T03:47:25;18.13;;;6.00;;
46110;SDS011;31849;55.992;37.252;2023-04-25T03:52:28;15.85;;;6.30;;
46110;SDS011;31849;55.992;37.252;2023-04-25T03:57:33;12.70;;;6.20;;
46110;SDS011;31849;55.992;37.252;2023-04-25T04:02:37;11.98;;;5.90;;
46110;SDS011;31849;55.992;37.252;2023-04-25T04:07:43;15.25;;;6.47;;
46110;SDS011;31849;55.992;37.252;2023-04-25T04:12:48;24.15;;;7.22;;
46110;SDS011;31849;55.992;37.252;2023-04-25T04:17:52;20.02;;;6.72;;
46110;SDS011;31849;55.992;37.252;2023-04-25T04:22:55;15.70;;;7.37;;
46110;SDS011;31849;55.992;37.252;2023-04-25T04:28:00;13.53;;;5.97;;
46110;SDS011;31849;55.992;37.252;2023-04-25T04:33:04;16.45;;;5.72;;
46110;SDS011;31849;55.992;37.252;2023-04-25T04:38:09;13.50;;;5.45;;
46110;SDS011;31849;55.992;37.252;2023-04-25T04:43:15;16.60;;;5.50;;
46110;SDS011;31849;55.992;37.252;2023-04-25T04:48:20;11.90;;;5.30;;
46110;SDS011;31849;55.992;37.252;2023-04-25T04:53:25;17.55;;;5.03;;
46110;SDS011;31849;55.992;37.252;2023-04-25T05:03:33;10.02;;;5.10;;
46110;SDS011;31849;55.992;37.252;2023-04-25T05:08:37;12.02;;;4.93;;
46110;SDS011;31849;55.992;37.252;2023-04-25T05:13:42;9.23;;;4.88;;
46110;SDS011;31849;55.992;37.252;2023-04-25T05:18:45;12.27;;;4.60;;
46110;SDS011;31849;55.992;37.252;2023-04-25T05:23:49;8.63;;;4.55;;
46110;SDS011;31849;55.992;37.252;2023-04-25T05:28:55;11.15;;;4.82;;
46110;SDS011;31849;55.992;37.252;2023-04-25T05:33:58;11.35;;;4.68;;
46110;SDS011;31849;55.992;37.252;2023-04-25T05:39:02;11.00;;;4.70;;
46110;SDS011;31849;55.992;37.252;2023-04-25T05:44:07;10.82;;;5.07;;
46110;SDS011;31849;55.992;37.252;2023-04-25T05:49:11;13.43;;;5.50;;
46110;SDS011;31849;55.992;37.252;2023-04-25T05:54:15;13.52;;;5.05;;
46110;SDS011;31849;55.992;37.252;2023-04-25T05:59:19;14.07;;;5.13;;
46110;SDS011;31849;55.992;37.252;2023-04-25T06:04:23;12.52;;;4.95;;
46110;SDS011;31849;55.992;37.252;2023-04-25T06:09:28;8.93;;;5.13;;
46110;SDS011;31849;55.992;37.252;2023-04-25T06:14:33;9.55;;;5.32;;
46110;SDS011;31849;55.992;37.252;2023-04-25T06:19:37;20.15;;;6.70;;
46110;SDS011;31849;55.992;37.252;2023-04-25T06:24:40;17.27;;;7.28;;
46110;SDS011;31849;55.992;37.252;2023-04-25T06:29:45;20.80;;;7.53;;
46110;SDS011;31849;55.992;37.252;2023-04-25T06:34:49;17.05;;;7.47;;
46110;SDS011;31849;55.992;37.252;2023-04-25T06:39:52;17.98;;;8.45;;
46110;SDS011;31849;55.992;37.252;2023-04-25T06:44:57;17.77;;;9.15;;
46110;SDS011;31849;55.992;37.252;2023-04-25T06:50:01;20.45;;;9.05;;
46110;SDS011;31849;55.992;37.252;2023-04-25T06:55:05;14.77;;;8.35;;
46110;SDS011;31849;55.992;37.252;2023-04-25T07:00:11;19.90;;;8.63;;
46110;SDS011;31849;55.992;37.252;2023-04-25T07:05:16;13.18;;;7.38;;
46110;SDS011;31849;55.992;37.252;2023-04-25T07:10:20;17.27;;;8.98;;
46110;SDS011;31849;55.992;37.252;2023-04-25T07:15:25;12.18;;;7.28;;
46110;SDS011;31849;55.992;37.252;2023-04-25T07:20:28;11.63;;;6.95;;
46110;SDS011;31849;55.992;37.252;2023-04-25T07:25:32;10.75;;;5.78;;
46110;SDS011;31849;55.992;37.252;2023-04-25T07:30:38;11.25;;;5.60;;
46110;SDS011;31849;55.992;37.252;2023-04-25T07:35:41;9.43;;;5.90;;
46110;SDS011;31849;55.992;37.252;2023-04-25T07:40:45;9.07;;;4.80;;
46110;SDS011;31849;55.992;37.252;2023-04-25T07:45:50;11.20;;;4.95;;
46110;SDS011;31849;55.992;37.252;2023-04-25T07:50:53;13.57;;;5.88;;
46110;SDS011;31849;55.992;37.252;2023-04-25T07:55:57;10.88;;;5.28;;
46110;SDS011;31849;55.992;37.252;2023-04-25T08:01:02;17.23;;;5.38;;
46110;SDS011;31849;55.992;37.252;2023-04-25T08:06:05;8.35;;;4.93;;
46110;SDS011;31849;55.992;37.252;2023-04-25T08:11:09;8.38;;;5.18;;
46110;SDS011;31849;55.992;37.252;2023-04-25T08:16:14;10.95;;;4.93;;
46110;SDS011;31849;55.992;37.252;2023-04-25T08:21:18;7.90;;;4.10;;
46110;SDS011;31849;55.992;37.252;2023-04-25T08:26:22;9.07;;;3.95;;
46110;SDS011;31849;55.992;37.252;2023-04-25T08:31:27;8.02;;;4.22;;
46110;SDS011;31849;55.992;37.252;2023-04-25T08:36:30;6.78;;;4.70;;
46110;SDS011;31849;55.992;37.252;2023-04-25T08:41:40;12.88;;;4.10;;
46110;SDS011;31849;55.992;37.252;2023-04-25T08:46:47;10.85;;;4.80;;
46110;SDS011;31849;55.992;37.252;2023-04-25T08:51:52;12.85;;;5.07;;
46110;SDS011;31849;55.992;37.252;2023-04-25T08:57:00;10.02;;;5.10;;
46110;SDS011;31849;55.992;37.252;2023-04-25T09:02:07;14.57;;;5.35;;
46110;SDS011;31849;55.992;37.252;2023-04-25T09:07:13;10.43;;;5.93;;
46110;SDS011;31849;55.992;37.252;2023-04-25T09:12:20;11.45;;;5.47;;
46110;SDS011;31849;55.992;37.252;2023-04-25T09:22:30;15.30;;;4.88;;
46110;SDS011;31849;55.992;37.252;2023-04-25T09:27:33;13.70;;;5.10;;
46110;SDS011;31849;55.992;37.252;2023-04-25T09:32:38;10.40;;;4.63;;
46110;SDS011;31849;55.992;37.252;2023-04-25T09:37:42;12.50;;;5.57;;
46110;SDS011;31849;55.992;37.252;2023-04-25T09:42:46;15.75;;;5.00;;
46110;SDS011;31849;55.992;37.252;2023-04-25T09:47:51;13.73;;;4.75;;
46110;SDS011;31849;55.992;37.252;2023-04-25T09:53:02;9.27;;;4.32;;
46110;SDS011;31849;55.992;37.252;2023-04-25T09:58:07;15.45;;;5.00;;
46110;SDS011;31849;55.992;37.252;2023-04-25T10:03:14;11.05;;;4.95;;
46110;SDS011;31849;55.992;37.252;2023-04-25T10:08:20;13.30;;;5.00;;
46110;SDS011;31849;55.992;37.252;2023-04-25T10:13:25;13.55;;;5.00;;
46110;SDS011;31849;55.992;37.252;2023-04-25T10:18:32;7.40;;;4.28;;
46110;SDS011;31849;55.992;37.252;2023-04-25T10:23:35;10.38;;;4.63;;
46110;SDS011;31849;55.992;37.252;2023-04-25T10:28:54;13.07;;;5.10;;
46110;SDS011;31849;55.992;37.252;2023-04-25T10:34:00;10.00;;;4.63;;
46110;SDS011;31849;55.992;37.252;2023-04-25T10:39:04;7.72;;;3.80;;
46110;SDS011;31849;55.992;37.252;2023-04-25T10:44:10;9.85;;;3.70;;
46110;SDS011;31849;55.992;37.252;2023-04-25T10:54:38;7.03;;;4.22;;
46110;SDS011;31849;55.992;37.252;2023-04-25T10:59:44;6.85;;;3.67;;
46110;SDS011;31849;55.992;37.252;2023-04-25T11:09:54;8.82;;;4.35;;
46110;SDS011;31849;55.992;37.252;2023-04-25T11:15:01;8.68;;;4.28;;
46110;SDS011;31849;55.992;37.252;2023-04-25T11:20:08;7.40;;;4.25;;
46110;SDS011;31849;55.992;37.252;2023-04-25T11:25:13;8.63;;;4.32;;
46110;SDS011;31849;55.992;37.252;2023-04-25T11:30:18;14.20;;;5.10;;
46110;SDS011;31849;55.992;37.252;2023-04-25T11:35:24;8.70;;;3.25;;
46110;SDS011;31849;55.992;37.252;2023-04-25T11:40:28;11.02;;;3.60;;
46110;SDS011;31849;55.992;37.252;2023-04-25T11:45:33;8.73;;;3.90;;
46110;SDS011;31849;55.992;37.252;2023-04-25T11:50:41;11.32;;;3.30;;
46110;SDS011;31849;55.992;37.252;2023-04-25T11:55:44;7.00;;;3.70;;
46110;SDS011;31849;55.992;37.252;2023-04-25T12:00:48;5.43;;;2.90;;
46110;SDS011;31849;55.992;37.252;2023-04-25T12:05:53;9.73;;;3.78;;
46110;SDS011;31849;55.992;37.252;2023-04-25T12:11:06;10.05;;;3.80;;
46110;SDS011;31849;55.992;37.252;2023-04-25T12:16:24;9.35;;;3.15;;
46110;SDS011;31849;55.992;37.252;2023-04-25T12:21:29;4.80;;;3.00;;
46110;SDS011;31849;55.992;37.252;2023-04-25T12:26:46;17.08;;;3.40;;
46110;SDS011;31849;55.992;37.252;2023-04-25T12:31:50;8.40;;;4.30;;
46110;SDS011;31849;55.992;37.252;2023-04-25T12:36:57;5.75;;;3.45;;
46110;SDS011;31849;55.992;37.252;2023-04-25T12:42:00;10.25;;;3.60;;
46110;SDS011;31849;55.992;37.252;2023-04-25T12:47:08;12.27;;;3.30;;
46110;SDS011;31849;55.992;37.252;2023-04-25T12:52:13;6.93;;;3.20;;
46110;SDS011;31849;55.992;37.252;2023-04-25T12:57:17;5.60;;;3.20;;
46110;SDS011;31849;55.992;37.252;2023-04-25T13:02:20;4.53;;;3.20;;
46110;SDS011;31849;55.992;37.252;2023-04-25T13:07:25;6.10;;;2.90;;
46110;SDS011;31849;55.992;37.252;2023-04-25T13:12:29;8.13;;;3.00;;
46110;SDS011;31849;55.992;37.252;2023-04-25T13:17:33;6.90;;;3.10;;
46110;SDS011;31849;55.992;37.252;2023-04-25T13:22:38;6.15;;;2.90;;
46110;SDS011;31849;55.992;37.252;2023-04-25T13:27:42;7.05;;;3.08;;
46110;SDS011;31849;55.992;37.252;2023-04-25T13:32:46;9.32;;;3.10;;
46110;SDS011;31849;55.992;37.252;2023-04-25T13:37:51;8.18;;;3.05;;
46110;SDS011;31849;55.992;37.252;2023-04-25T13:42:55;5.13;;;3.38;;
46110;SDS011;31849;55.992;37.252;2023-04-25T13:47:59;5.75;;;2.88;;
46110;SDS011;31849;55.992;37.252;2023-04-25T13:53:04;8.75;;;2.55;;
46110;SDS011;31849;55.992;37.252;2023-04-25T13:58:07;8.45;;;3.30;;
46110;SDS011;31849;55.992;37.252;2023-04-25T14:08:16;6.82;;;2.72;;
46110;SDS011;31849;55.992;37.252;2023-04-25T14:13:20;6.47;;;2.70;;
46110;SDS011;31849;55.992;37.252;2023-04-25T14:18:25;7.88;;;3.28;;
46110;SDS011;31849;55.992;37.252;2023-04-25T14:23:29;9.77;;;2.70;;
46110;SDS011;31849;55.992;37.252;2023-04-25T14:28:33;8.02;;;2.90;;
46110;SDS011;31849;55.992;37.252;2023-04-25T14:33:37;7.38;;;3.13;;
46110;SDS011;31849;55.992;37.252;2023-04-25T14:38:44;6.60;;;2.88;;
46110;SDS011;31849;55.992;37.252;2023-04-25T14:43:48;7.15;;;3.53;;
46110;SDS011;31849;55.992;37.252;2023-04-25T14:48:52;6.95;;;4.00;;
46110;SDS011;31849;55.992;37.252;2023-04-25T14:53:59;8.45;;;3.60;;
46110;SDS011;31849;55.992;37.252;2023-04-25T14:59:02;10.75;;;3.97;;
46110;SDS011;31849;55.992;37.252;2023-04-25T15:04:06;10.00;;;3.67;;
46110;SDS011;31849;55.992;37.252;2023-04-25T15:09:11;6.45;;;3.33;;
46110;SDS011;31849;55.992;37.252;2023-04-25T15:14:15;8.65;;;3.40;;
46110;SDS011;31849;55.992;37.252;2023-04-25T15:19:20;8.40;;;3.22;;
46110;SDS011;31849;55.992;37.252;2023-04-25T15:24:25;5.07;;;3.67;;
46110;SDS011;31849;55.992;37.252;2023-04-25T15:29:28;4.78;;;2.80;;
46110;SDS011;31849;55.992;37.252;2023-04-25T15:34:32;4.90;;;3.20;;
46110;SDS011;31849;55.992;37.252;2023-04-25T15:39:38;7.65;;;2.88;;
46110;SDS011;31849;55.992;37.252;2023-04-25T15:44:42;6.70;;;3.17;;
46110;SDS011;31849;55.992;37.252;2023-04-25T15:49:45;7.00;;;3.07;;
46110;SDS011;31849;55.992;37.252;2023-04-25T15:54:50;6.00;;;3.60;;
46110;SDS011;31849;55.992;37.252;2023-04-25T15:59:54;7.53;;;3.90;;
46110;SDS011;31849;55.992;37.252;2023-04-25T16:04:57;9.48;;;3.45;;
46110;SDS011;31849;55.992;37.252;2023-04-25T16:15:07;7.43;;;3.58;;
46110;SDS011;31849;55.992;37.252;2023-04-25T16:20:14;8.82;;;3.55;;
46110;SDS011;31849;55.992;37.252;2023-04-25T16:25:19;8.93;;;3.80;;
46110;SDS011;31849;55.992;37.252;2023-04-25T16:30:23;7.57;;;3.83;;
46110;SDS011;31849;55.992;37.252;2023-04-25T16:35:27;8.88;;;3.95;;
46110;SDS011;31849;55.992;37.252;2023-04-25T16:40:34;7.63;;;3.70;;
46110;SDS011;31849;55.992;37.252;2023-04-25T16:45:38;11.13;;;4.35;;
46110;SDS011;31849;55.992;37.252;2023-04-25T16:50:41;10.00;;;3.83;;
46110;SDS011;31849;55.992;37.252;2023-04-25T16:55:46;8.77;;;4.20;;
46110;SDS011;31849;55.992;37.252;2023-04-25T17:00:50;11.65;;;4.43;;
46110;SDS011;31849;55.992;37.252;2023-04-25T17:05:54;5.80;;;4.20;;
46110;SDS011;31849;55.992;37.252;2023-04-25T17:10:59;10.60;;;4.47;;
46110;SDS011;31849;55.992;37.252;2023-04-25T17:16:03;15.73;;;5.50;;
46110;SDS011;31849;55.992;37.252;2023-04-25T17:26:12;16.27;;;7.68;;
46110;SDS011;31849;55.992;37.252;2023-04-25T17:31:17;15.00;;;7.68;;
46110;SDS011;31849;55.992;37.252;2023-04-25T17:36:21;22.63;;;14.18;;
46110;SDS011;31849;55.992;37.252;2023-04-25T17:41:26;34.50;;;18.70;;
46110;SDS011;31849;55.992;37.252;2023-04-25T17:46:30;31.00;;;13.63;;
46110;SDS011;31849;55.992;37.252;2023-04-25T17:51:34;23.23;;;10.20;;
46110;SDS011;31849;55.992;37.252;2023-04-25T17:56:39;21.53;;;10.43;;
46110;SDS011;31849;55.992;37.252;2023-04-25T18:01:42;18.77;;;8.88;;
46110;SDS011;31849;55.992;37.252;2023-04-25T18:06:48;29.60;;;10.05;;
46110;SDS011;31849;55.992;37.252;2023-04-25T18:11:53;17.13;;;7.50;;
46110;SDS011;31849;55.992;37.252;2023-04-25T18:16:57;20.88;;;5.90;;
46110;SDS011;31849;55.992;37.252;2023-04-25T18:22:00;16.52;;;6.03;;
46110;SDS011;31849;55.992;37.252;2023-04-25T18:27:06;14.17;;;5.80;;
46110;SDS011;31849;55.992;37.252;2023-04-25T18:32:09;12.13;;;5.60;;
46110;SDS011;31849;55.992;37.252;2023-04-25T18:37:13;13.20;;;6.23;;
46110;SDS011;31849;55.992;37.252;2023-04-25T18:42:19;15.50;;;6.78;;
46110;SDS011;31849;55.992;37.252;2023-04-25T18:47:23;15.48;;;6.88;;
46110;SDS011;31849;55.992;37.252;2023-04-25T18:52:26;9.52;;;4.63;;
46110;SDS011;31849;55.992;37.252;2023-04-25T18:57:31;5.63;;;3.77;;
46110;SDS011;31849;55.992;37.252;2023-04-25T19:02:35;9.23;;;3.63;;
46110;SDS011;31849;55.992;37.252;2023-04-25T19:07:39;7.45;;;3.72;;
46110;SDS011;31849;55.992;37.252;2023-04-25T19:12:44;10.60;;;3.53;;
46110;SDS011;31849;55.992;37.252;2023-04-25T19:17:49;6.68;;;3.38;;
46110;SDS011;31849;55.992;37.252;2023-04-25T19:22:54;12.27;;;3.25;;
46110;SDS011;31849;55.992;37.252;2023-04-25T19:27:59;9.50;;;3.47;;
46110;SDS011;31849;55.992;37.252;2023-04-25T19:33:03;13.02;;;3.67;;
46110;SDS011;31849;55.992;37.252;2023-04-25T19:38:06;13.30;;;3.70;;
46110;SDS011;31849;55.992;37.252;2023-04-25T19:43:11;12.48;;;4.18;;
46110;SDS011;31849;55.992;37.252;2023-04-25T19:48:15;11.35;;;4.30;;
46110;SDS011;31849;55.992;37.252;2023-04-25T19:53:18;11.82;;;4.10;;
46110;SDS011;31849;55.992;37.252;2023-04-25T19:58:23;8.45;;;3.63;;
46110;SDS011;31849;55.992;37.252;2023-04-25T20:03:27;9.38;;;3.97;;
46110;SDS011;31849;55.992;37.252;2023-04-25T20:08:31;17.93;;;4.33;;
46110;SDS011;31849;55.992;37.252;2023-04-25T20:13:38;12.80;;;4.43;;
46110;SDS011;31849;55.992;37.252;2023-04-25T20:18:41;8.05;;;4.32;;
46110;SDS011;31849;55.992;37.252;2023-04-25T20:23:45;9.05;;;3.97;;
46110;SDS011;31849;55.992;37.252;2023-04-25T20:28:50;11.27;;;4.40;;
46110;SDS011;31849;55.992;37.252;2023-04-25T20:33:54;12.07;;;4.20;;
46110;SDS011;31849;55.992;37.252;2023-04-25T20:38:57;10.35;;;4.57;;
46110;SDS011;31849;55.992;37.252;2023-04-25T20:44:03;13.30;;;4.73;;
46110;SDS011;31849;55.992;37.252;2023-04-25T20:49:08;13.80;;;5.38;;
46110;SDS011;31849;55.992;37.252;2023-04-25T20:54:11;8.52;;;4.63;;
46110;SDS011;31849;55.992;37.252;2023-04-25T20:59:16;9.30;;;4.90;;
46110;SDS011;31849;55.992;37.252;2023-04-25T21:04:20;14.45;;;4.78;;
46110;SDS011;31849;55.992;37.252;2023-04-25T21:09:23;9.80;;;4.73;;
46110;SDS011;31849;55.992;37.252;2023-04-25T21:14:28;8.50;;;4.80;;
46110;SDS011;31849;55.992;37.252;2023-04-25T21:19:32;10.95;;;4.85;;
46110;SDS011;31849;55.992;37.252;2023-04-25T21:24:35;12.32;;;5.25;;
46110;SDS011;31849;55.992;37.252;2023-04-25T21:29:40;9.40;;;5.15;;
46110;SDS011;31849;55.992;37.252;2023-04-25T21:34:44;9.63;;;4.72;;
46110;SDS011;31849;55.992;37.252;2023-04-25T21:39:47;11.15;;;4.28;;
46110;SDS011;31849;55.992;37.252;2023-04-25T21:44:52;8.73;;;5.07;;
46110;SDS011;31849;55.992;37.252;2023-04-25T21:49:56;8.63;;;4.47;;
46110;SDS011;31849;55.992;37.252;2023-04-25T21:55:00;10.37;;;4.97;;
46110;SDS011;31849;55.992;37.252;2023-04-25T22:00:06;8.53;;;4.27;;
46110;SDS011;31849;55.992;37.252;2023-04-25T22:05:25;10.32;;;4.47;;
46110;SDS011;31849;55.992;37.252;2023-04-25T22:10:30;6.63;;;4.47;;
46110;SDS011;31849;55.992;37.252;2023-04-25T22:15:35;7.68;;;4.65;;
46110;SDS011;31849;55.992;37.252;2023-04-25T22:20:39;8.35;;;3.90;;
46110;SDS011;31849;55.992;37.252;2023-04-25T22:25:42;8.88;;;3.70;;
46110;SDS011;31849;55.992;37.252;2023-04-25T22:30:48;6.03;;;3.42;;
46110;SDS011;31849;55.992;37.252;2023-04-25T22:35:51;6.93;;;3.88;;
46110;SDS011;31849;55.992;37.252;2023-04-25T22:40:55;5.78;;;4.47;;
46110;SDS011;31849;55.992;37.252;2023-04-25T22:46:00;9.30;;;5.10;;
46110;SDS011;31849;55.992;37.252;2023-04-25T22:51:04;7.07;;;4.10;;
46110;SDS011;31849;55.992;37.252;2023-04-25T22:56:08;10.27;;;4.35;;
46110;SDS011;31849;55.992;37.252;2023-04-25T23:01:13;9.33;;;4.43;;
46110;SDS011;31849;55.992;37.252;2023-04-25T23:06:20;7.10;;;4.53;;
46110;SDS011;31849;55.992;37.252;2023-04-25T23:11:23;9.35;;;4.88;;
46110;SDS011;31849;55.992;37.252;2023-04-25T23:16:28;9.02;;;4.63;;
46110;SDS011;31849;55.992;37.252;2023-04-25T23:21:32;11.63;;;4.53;;
46110;SDS011;31849;55.992;37.252;2023-04-25T23:26:35;6.07;;;4.68;;
46110;SDS011;31849;55.992;37.252;2023-04-25T23:31:40;8.75;;;5.22;;
46110;SDS011;31849;55.992;37.252;2023-04-25T23:36:45;7.50;;;4.32;;
46110;SDS011;31849;55.992;37.252;2023-04-25T23:41:48;7.68;;;4.68;;
46110;SDS011;31849;55.992;37.252;2023-04-25T23:46:53;9.45;;;5.90;;
46110;SDS011;31849;55.992;37.252;2023-04-25T23:51:57;11.27;;;6.07;;
46110;SDS011;31849;55.992;37.252;2023-04-25T23:57:00;7.80;;;5.75;;
